sensor_id;sensor_type;location;lat;lon;timestamp;P1;durP1;ratioP1;P2;durP2;ratioP2
53533;SDS011;39421;53.204;6.568;2023-06-10T00:01:56;12.98;;;6.72;;
53533;SDS011;39421;53.204;6.568;2023-06-10T00:04:23;11.88;;;6.20;;
53533;SDS011;39421;53.204;6.568;2023-06-10T00:06:49;12.23;;;6.43;;
53533;SDS011;39421;53.204;6.568;2023-06-10T00:09:15;12.25;;;6.65;;
53533;SDS011;39421;53.204;6.568;2023-06-10T00:11:43;11.68;;;6.40;;
53533;SDS011;39421;53.204;6.568;2023-06-10T00:14:09;12.60;;;6.65;;
53533;SDS011;39421;53.204;6.568;2023-06-10T00:16:35;12.38;;;6.70;;
53533;SDS011;39421;53.204;6.568;2023-06-10T00:19:04;12.43;;;6.80;;
53533;SDS011;39421;53.204;6.568;2023-06-10T00:21:30;11.70;;;6.28;;
53533;SDS011;39421;53.204;6.568;2023-06-10T00:24:05;11.93;;;6.23;;
53533;SDS011;39421;53.204;6.568;2023-06-10T00:26:31;12.57;;;6.22;;
53533;SDS011;39421;53.204;6.568;2023-06-10T00:28:58;12.18;;;5.57;;
53533;SDS011;39421;53.204;6.568;2023-06-10T00:31:24;11.48;;;5.47;;
53533;SDS011;39421;53.204;6.568;2023-06-10T00:33:53;11.57;;;5.55;;
53533;SDS011;39421;53.204;6.568;2023-06-10T00:36:20;11.27;;;5.60;;
53533;SDS011;39421;53.204;6.568;2023-06-10T00:38:46;10.90;;;5.30;;
53533;SDS011;39421;53.204;6.568;2023-06-10T00:41:12;11.77;;;5.30;;
53533;SDS011;39421;53.204;6.568;2023-06-10T00:43:38;10.90;;;5.43;;
53533;SDS011;39421;53.204;6.568;2023-06-10T00:46:05;10.80;;;5.23;;
53533;SDS011;39421;53.204;6.568;2023-06-10T00:48:31;10.48;;;5.43;;
53533;SDS011;39421;53.204;6.568;2023-06-10T00:50:58;13.00;;;5.70;;
53533;SDS011;39421;53.204;6.568;2023-06-10T00:53:25;12.98;;;5.70;;
53533;SDS011;39421;53.204;6.568;2023-06-10T00:55:52;11.40;;;5.05;;
53533;SDS011;39421;53.204;6.568;2023-06-10T00:58:18;11.35;;;5.22;;
53533;SDS011;39421;53.204;6.568;2023-06-10T01:00:44;11.18;;;5.30;;
53533;SDS011;39421;53.204;6.568;2023-06-10T01:03:11;10.82;;;5.25;;
53533;SDS011;39421;53.204;6.568;2023-06-10T01:05:38;10.38;;;5.30;;
53533;SDS011;39421;53.204;6.568;2023-06-10T01:08:07;11.13;;;5.50;;
53533;SDS011;39421;53.204;6.568;2023-06-10T01:10:38;10.77;;;5.50;;
53533;SDS011;39421;53.204;6.568;2023-06-10T01:13:07;10.05;;;5.20;;
53533;SDS011;39421;53.204;6.568;2023-06-10T01:15:36;11.30;;;5.47;;
53533;SDS011;39421;53.204;6.568;2023-06-10T01:18:03;12.18;;;5.53;;
53533;SDS011;39421;53.204;6.568;2023-06-10T01:20:33;10.68;;;5.35;;
53533;SDS011;39421;53.204;6.568;2023-06-10T01:23:02;12.38;;;5.40;;
53533;SDS011;39421;53.204;6.568;2023-06-10T01:25:28;10.07;;;5.15;;
53533;SDS011;39421;53.204;6.568;2023-06-10T01:28:12;10.93;;;5.00;;
53533;SDS011;39421;53.204;6.568;2023-06-10T01:30:43;11.53;;;5.33;;
53533;SDS011;39421;53.204;6.568;2023-06-10T01:33:12;11.52;;;5.28;;
53533;SDS011;39421;53.204;6.568;2023-06-10T01:35:40;10.57;;;5.05;;
53533;SDS011;39421;53.204;6.568;2023-06-10T01:38:07;10.27;;;5.22;;
53533;SDS011;39421;53.204;6.568;2023-06-10T01:40:33;10.98;;;5.05;;
53533;SDS011;39421;53.204;6.568;2023-06-10T01:42:59;11.55;;;5.50;;
53533;SDS011;39421;53.204;6.568;2023-06-10T01:45:26;10.68;;;5.40;;
53533;SDS011;39421;53.204;6.568;2023-06-10T01:47:52;10.10;;;4.95;;
53533;SDS011;39421;53.204;6.568;2023-06-10T01:50:18;11.10;;;4.97;;
53533;SDS011;39421;53.204;6.568;2023-06-10T01:52:45;11.40;;;5.03;;
53533;SDS011;39421;53.204;6.568;2023-06-10T01:55:11;10.90;;;5.20;;
53533;SDS011;39421;53.204;6.568;2023-06-10T01:57:37;10.20;;;5.10;;
53533;SDS011;39421;53.204;6.568;2023-06-10T02:00:04;11.00;;;5.32;;
53533;SDS011;39421;53.204;6.568;2023-06-10T02:02:30;10.23;;;5.45;;
53533;SDS011;39421;53.204;6.568;2023-06-10T02:04:56;12.10;;;5.50;;
53533;SDS011;39421;53.204;6.568;2023-06-10T02:07:22;10.77;;;5.10;;
53533;SDS011;39421;53.204;6.568;2023-06-10T02:09:48;10.68;;;4.93;;
53533;SDS011;39421;53.204;6.568;2023-06-10T02:12:14;9.77;;;5.00;;
53533;SDS011;39421;53.204;6.568;2023-06-10T02:14:40;10.05;;;4.88;;
53533;SDS011;39421;53.204;6.568;2023-06-10T02:17:07;11.55;;;5.13;;
53533;SDS011;39421;53.204;6.568;2023-06-10T02:19:37;9.73;;;5.20;;
53533;SDS011;39421;53.204;6.568;2023-06-10T02:22:07;11.10;;;4.90;;
53533;SDS011;39421;53.204;6.568;2023-06-10T02:24:33;10.17;;;5.17;;
53533;SDS011;39421;53.204;6.568;2023-06-10T02:26:59;10.98;;;4.90;;
53533;SDS011;39421;53.204;6.568;2023-06-10T02:29:27;10.38;;;4.80;;
53533;SDS011;39421;53.204;6.568;2023-06-10T02:31:53;11.65;;;4.93;;
53533;SDS011;39421;53.204;6.568;2023-06-10T02:34:19;10.25;;;4.88;;
53533;SDS011;39421;53.204;6.568;2023-06-10T02:36:45;11.75;;;4.90;;
53533;SDS011;39421;53.204;6.568;2023-06-10T02:39:14;11.57;;;4.57;;
53533;SDS011;39421;53.204;6.568;2023-06-10T02:41:40;10.20;;;4.77;;
53533;SDS011;39421;53.204;6.568;2023-06-10T02:44:06;10.20;;;4.88;;
53533;SDS011;39421;53.204;6.568;2023-06-10T02:46:32;11.23;;;4.70;;
53533;SDS011;39421;53.204;6.568;2023-06-10T02:48:58;10.93;;;4.70;;
53533;SDS011;39421;53.204;6.568;2023-06-10T02:51:24;10.48;;;4.60;;
53533;SDS011;39421;53.204;6.568;2023-06-10T02:53:51;10.30;;;4.60;;
53533;SDS011;39421;53.204;6.568;2023-06-10T02:56:17;11.45;;;4.78;;
53533;SDS011;39421;53.204;6.568;2023-06-10T02:58:43;10.70;;;4.50;;
53533;SDS011;39421;53.204;6.568;2023-06-10T03:01:09;10.10;;;4.55;;
53533;SDS011;39421;53.204;6.568;2023-06-10T03:03:35;10.75;;;4.90;;
53533;SDS011;39421;53.204;6.568;2023-06-10T03:06:05;11.85;;;4.80;;
53533;SDS011;39421;53.204;6.568;2023-06-10T03:08:31;11.40;;;4.97;;
53533;SDS011;39421;53.204;6.568;2023-06-10T03:10:58;11.23;;;4.93;;
53533;SDS011;39421;53.204;6.568;2023-06-10T03:13:24;11.13;;;5.13;;
53533;SDS011;39421;53.204;6.568;2023-06-10T03:15:50;12.20;;;5.00;;
53533;SDS011;39421;53.204;6.568;2023-06-10T03:18:16;12.43;;;5.47;;
53533;SDS011;39421;53.204;6.568;2023-06-10T03:20:42;13.65;;;5.55;;
53533;SDS011;39421;53.204;6.568;2023-06-10T03:23:09;13.02;;;5.72;;
53533;SDS011;39421;53.204;6.568;2023-06-10T03:25:35;12.93;;;5.45;;
53533;SDS011;39421;53.204;6.568;2023-06-10T03:28:02;12.85;;;5.53;;
53533;SDS011;39421;53.204;6.568;2023-06-10T03:30:28;12.57;;;5.35;;
53533;SDS011;39421;53.204;6.568;2023-06-10T03:32:54;13.00;;;5.55;;
53533;SDS011;39421;53.204;6.568;2023-06-10T03:35:20;12.45;;;5.28;;
53533;SDS011;39421;53.204;6.568;2023-06-10T03:37:47;13.13;;;5.77;;
53533;SDS011;39421;53.204;6.568;2023-06-10T03:40:13;11.95;;;5.57;;
53533;SDS011;39421;53.204;6.568;2023-06-10T03:42:39;13.38;;;5.80;;
53533;SDS011;39421;53.204;6.568;2023-06-10T03:45:05;13.02;;;6.20;;
53533;SDS011;39421;53.204;6.568;2023-06-10T03:47:35;15.55;;;6.07;;
53533;SDS011;39421;53.204;6.568;2023-06-10T03:50:02;12.27;;;5.87;;
53533;SDS011;39421;53.204;6.568;2023-06-10T03:52:28;14.73;;;6.05;;
53533;SDS011;39421;53.204;6.568;2023-06-10T03:54:55;12.13;;;6.32;;
53533;SDS011;39421;53.204;6.568;2023-06-10T03:57:21;12.63;;;6.22;;
53533;SDS011;39421;53.204;6.568;2023-06-10T03:59:47;13.60;;;6.25;;
53533;SDS011;39421;53.204;6.568;2023-06-10T04:02:13;13.07;;;5.93;;
53533;SDS011;39421;53.204;6.568;2023-06-10T04:04:40;12.13;;;6.40;;
53533;SDS011;39421;53.204;6.568;2023-06-10T04:07:06;13.55;;;6.18;;
53533;SDS011;39421;53.204;6.568;2023-06-10T04:09:34;12.98;;;6.50;;
53533;SDS011;39421;53.204;6.568;2023-06-10T04:12:00;13.75;;;6.45;;
53533;SDS011;39421;53.204;6.568;2023-06-10T04:14:27;15.25;;;6.80;;
53533;SDS011;39421;53.204;6.568;2023-06-10T04:16:54;16.10;;;7.13;;
53533;SDS011;39421;53.204;6.568;2023-06-10T04:19:20;13.80;;;6.70;;
53533;SDS011;39421;53.204;6.568;2023-06-10T04:21:46;13.77;;;6.43;;
53533;SDS011;39421;53.204;6.568;2023-06-10T04:24:13;14.43;;;7.00;;
53533;SDS011;39421;53.204;6.568;2023-06-10T04:26:39;14.43;;;7.28;;
53533;SDS011;39421;53.204;6.568;2023-06-10T04:29:05;14.73;;;7.20;;
53533;SDS011;39421;53.204;6.568;2023-06-10T04:31:31;16.05;;;7.15;;
53533;SDS011;39421;53.204;6.568;2023-06-10T04:33:57;15.25;;;6.55;;
53533;SDS011;39421;53.204;6.568;2023-06-10T04:36:23;13.02;;;6.85;;
53533;SDS011;39421;53.204;6.568;2023-06-10T04:38:49;15.55;;;7.07;;
53533;SDS011;39421;53.204;6.568;2023-06-10T04:41:17;14.85;;;7.30;;
53533;SDS011;39421;53.204;6.568;2023-06-10T04:43:43;13.27;;;6.43;;
53533;SDS011;39421;53.204;6.568;2023-06-10T04:46:09;15.55;;;7.00;;
53533;SDS011;39421;53.204;6.568;2023-06-10T04:48:35;15.70;;;7.05;;
53533;SDS011;39421;53.204;6.568;2023-06-10T04:51:02;15.93;;;6.82;;
53533;SDS011;39421;53.204;6.568;2023-06-10T04:53:28;15.02;;;7.32;;
53533;SDS011;39421;53.204;6.568;2023-06-10T04:55:54;13.82;;;7.15;;
53533;SDS011;39421;53.204;6.568;2023-06-10T04:58:20;15.02;;;7.32;;
53533;SDS011;39421;53.204;6.568;2023-06-10T05:00:46;13.13;;;6.93;;
53533;SDS011;39421;53.204;6.568;2023-06-10T05:03:12;13.93;;;6.90;;
53533;SDS011;39421;53.204;6.568;2023-06-10T05:05:38;14.52;;;7.10;;
53533;SDS011;39421;53.204;6.568;2023-06-10T05:08:05;14.02;;;7.00;;
53533;SDS011;39421;53.204;6.568;2023-06-10T05:10:31;14.48;;;7.10;;
53533;SDS011;39421;53.204;6.568;2023-06-10T05:12:59;14.15;;;6.88;;
53533;SDS011;39421;53.204;6.568;2023-06-10T05:15:25;14.82;;;7.10;;
53533;SDS011;39421;53.204;6.568;2023-06-10T05:17:51;13.00;;;6.43;;
53533;SDS011;39421;53.204;6.568;2023-06-10T05:20:17;14.65;;;6.70;;
53533;SDS011;39421;53.204;6.568;2023-06-10T05:22:44;15.27;;;6.73;;
53533;SDS011;39421;53.204;6.568;2023-06-10T05:25:10;15.07;;;6.97;;
53533;SDS011;39421;53.204;6.568;2023-06-10T05:27:36;13.15;;;6.43;;
53533;SDS011;39421;53.204;6.568;2023-06-10T05:30:03;13.35;;;6.70;;
53533;SDS011;39421;53.204;6.568;2023-06-10T05:32:29;14.38;;;6.75;;
53533;SDS011;39421;53.204;6.568;2023-06-10T05:34:55;14.80;;;6.33;;
53533;SDS011;39421;53.204;6.568;2023-06-10T05:37:21;16.23;;;6.95;;
53533;SDS011;39421;53.204;6.568;2023-06-10T05:39:47;14.02;;;7.03;;
53533;SDS011;39421;53.204;6.568;2023-06-10T05:42:13;13.75;;;6.60;;
53533;SDS011;39421;53.204;6.568;2023-06-10T05:44:40;13.95;;;6.25;;
53533;SDS011;39421;53.204;6.568;2023-06-10T05:47:06;13.45;;;6.20;;
53533;SDS011;39421;53.204;6.568;2023-06-10T05:49:32;13.95;;;7.00;;
53533;SDS011;39421;53.204;6.568;2023-06-10T05:51:58;13.80;;;6.23;;
53533;SDS011;39421;53.204;6.568;2023-06-10T05:54:25;14.85;;;6.53;;
53533;SDS011;39421;53.204;6.568;2023-06-10T05:56:51;13.27;;;6.40;;
53533;SDS011;39421;53.204;6.568;2023-06-10T05:59:17;15.02;;;6.63;;
53533;SDS011;39421;53.204;6.568;2023-06-10T06:01:43;13.70;;;6.40;;
53533;SDS011;39421;53.204;6.568;2023-06-10T06:04:09;13.47;;;6.37;;
53533;SDS011;39421;53.204;6.568;2023-06-10T06:06:38;13.45;;;6.20;;
53533;SDS011;39421;53.204;6.568;2023-06-10T06:09:05;14.97;;;6.50;;
53533;SDS011;39421;53.204;6.568;2023-06-10T06:11:31;13.20;;;6.35;;
53533;SDS011;39421;53.204;6.568;2023-06-10T06:13:57;13.30;;;6.28;;
53533;SDS011;39421;53.204;6.568;2023-06-10T06:16:23;13.33;;;6.20;;
53533;SDS011;39421;53.204;6.568;2023-06-10T06:18:49;13.02;;;6.18;;
53533;SDS011;39421;53.204;6.568;2023-06-10T06:21:15;14.07;;;6.38;;
53533;SDS011;39421;53.204;6.568;2023-06-10T06:23:42;13.43;;;6.20;;
53533;SDS011;39421;53.204;6.568;2023-06-10T06:26:08;13.55;;;6.25;;
53533;SDS011;39421;53.204;6.568;2023-06-10T06:28:36;20.20;;;6.82;;
53533;SDS011;39421;53.204;6.568;2023-06-10T06:31:03;11.45;;;6.20;;
53533;SDS011;39421;53.204;6.568;2023-06-10T06:33:32;12.15;;;5.95;;
53533;SDS011;39421;53.204;6.568;2023-06-10T06:35:58;13.05;;;5.90;;
53533;SDS011;39421;53.204;6.568;2023-06-10T06:38:25;13.33;;;5.80;;
53533;SDS011;39421;53.204;6.568;2023-06-10T06:40:53;12.55;;;6.00;;
53533;SDS011;39421;53.204;6.568;2023-06-10T06:43:19;12.90;;;5.78;;
53533;SDS011;39421;53.204;6.568;2023-06-10T06:45:46;12.63;;;5.63;;
53533;SDS011;39421;53.204;6.568;2023-06-10T06:48:12;13.68;;;6.20;;
53533;SDS011;39421;53.204;6.568;2023-06-10T06:50:38;13.23;;;6.15;;
53533;SDS011;39421;53.204;6.568;2023-06-10T06:53:06;11.90;;;6.00;;
53533;SDS011;39421;53.204;6.568;2023-06-10T06:55:32;11.57;;;5.65;;
53533;SDS011;39421;53.204;6.568;2023-06-10T06:57:58;13.80;;;5.73;;
53533;SDS011;39421;53.204;6.568;2023-06-10T07:00:27;11.65;;;5.50;;
53533;SDS011;39421;53.204;6.568;2023-06-10T07:02:54;12.93;;;5.33;;
53533;SDS011;39421;53.204;6.568;2023-06-10T07:05:20;12.13;;;5.50;;
53533;SDS011;39421;53.204;6.568;2023-06-10T07:07:46;12.93;;;5.30;;
53533;SDS011;39421;53.204;6.568;2023-06-10T07:10:12;13.05;;;6.05;;
53533;SDS011;39421;53.204;6.568;2023-06-10T07:12:39;11.73;;;5.75;;
53533;SDS011;39421;53.204;6.568;2023-06-10T07:15:06;12.10;;;5.18;;
53533;SDS011;39421;53.204;6.568;2023-06-10T07:17:33;12.45;;;5.65;;
53533;SDS011;39421;53.204;6.568;2023-06-10T07:19:59;12.43;;;6.00;;
53533;SDS011;39421;53.204;6.568;2023-06-10T07:22:25;12.70;;;6.03;;
53533;SDS011;39421;53.204;6.568;2023-06-10T07:24:52;12.97;;;5.57;;
53533;SDS011;39421;53.204;6.568;2023-06-10T07:27:19;12.52;;;5.75;;
53533;SDS011;39421;53.204;6.568;2023-06-10T07:29:46;10.98;;;5.57;;
53533;SDS011;39421;53.204;6.568;2023-06-10T07:32:12;11.15;;;5.45;;
53533;SDS011;39421;53.204;6.568;2023-06-10T07:34:43;11.43;;;5.72;;
53533;SDS011;39421;53.204;6.568;2023-06-10T07:37:10;11.23;;;5.30;;
53533;SDS011;39421;53.204;6.568;2023-06-10T07:39:36;11.75;;;5.65;;
53533;SDS011;39421;53.204;6.568;2023-06-10T07:42:02;19.00;;;5.80;;
53533;SDS011;39421;53.204;6.568;2023-06-10T07:44:28;11.60;;;5.25;;
53533;SDS011;39421;53.204;6.568;2023-06-10T07:46:54;10.30;;;5.20;;
53533;SDS011;39421;53.204;6.568;2023-06-10T07:49:20;10.53;;;5.10;;
53533;SDS011;39421;53.204;6.568;2023-06-10T07:51:46;11.70;;;5.35;;
53533;SDS011;39421;53.204;6.568;2023-06-10T07:54:12;9.68;;;5.32;;
53533;SDS011;39421;53.204;6.568;2023-06-10T07:56:39;11.93;;;5.15;;
53533;SDS011;39421;53.204;6.568;2023-06-10T07:59:05;10.52;;;5.25;;
53533;SDS011;39421;53.204;6.568;2023-06-10T08:01:31;11.20;;;5.30;;
53533;SDS011;39421;53.204;6.568;2023-06-10T08:03:58;10.70;;;5.28;;
53533;SDS011;39421;53.204;6.568;2023-06-10T08:06:24;10.85;;;5.35;;
53533;SDS011;39421;53.204;6.568;2023-06-10T08:08:50;12.07;;;4.97;;
53533;SDS011;39421;53.204;6.568;2023-06-10T08:11:16;10.80;;;5.00;;
53533;SDS011;39421;53.204;6.568;2023-06-10T08:13:42;11.80;;;5.15;;
53533;SDS011;39421;53.204;6.568;2023-06-10T08:16:08;11.10;;;4.67;;
53533;SDS011;39421;53.204;6.568;2023-06-10T08:18:35;9.40;;;4.72;;
53533;SDS011;39421;53.204;6.568;2023-06-10T08:21:01;11.82;;;4.70;;
53533;SDS011;39421;53.204;6.568;2023-06-10T08:23:27;11.73;;;4.80;;
53533;SDS011;39421;53.204;6.568;2023-06-10T08:25:53;9.32;;;4.60;;
53533;SDS011;39421;53.204;6.568;2023-06-10T08:28:19;10.48;;;4.65;;
53533;SDS011;39421;53.204;6.568;2023-06-10T08:30:45;12.20;;;4.80;;
53533;SDS011;39421;53.204;6.568;2023-06-10T08:33:12;10.45;;;4.70;;
53533;SDS011;39421;53.204;6.568;2023-06-10T08:35:38;10.57;;;5.00;;
53533;SDS011;39421;53.204;6.568;2023-06-10T08:38:04;9.63;;;4.70;;
53533;SDS011;39421;53.204;6.568;2023-06-10T08:40:30;9.90;;;4.93;;
53533;SDS011;39421;53.204;6.568;2023-06-10T08:45:27;11.52;;;4.53;;
53533;SDS011;39421;53.204;6.568;2023-06-10T08:47:54;9.77;;;4.63;;
53533;SDS011;39421;53.204;6.568;2023-06-10T08:50:22;9.90;;;4.63;;
53533;SDS011;39421;53.204;6.568;2023-06-10T08:52:50;10.50;;;4.80;;
53533;SDS011;39421;53.204;6.568;2023-06-10T08:57:51;11.18;;;4.38;;
53533;SDS011;39421;53.204;6.568;2023-06-10T09:00:18;16.30;;;5.03;;
53533;SDS011;39421;53.204;6.568;2023-06-10T09:02:44;9.48;;;4.80;;
53533;SDS011;39421;53.204;6.568;2023-06-10T09:05:10;10.73;;;4.68;;
53533;SDS011;39421;53.204;6.568;2023-06-10T09:07:36;11.52;;;4.68;;
53533;SDS011;39421;53.204;6.568;2023-06-10T09:10:03;9.65;;;4.40;;
53533;SDS011;39421;53.204;6.568;2023-06-10T09:12:32;12.18;;;4.45;;
53533;SDS011;39421;53.204;6.568;2023-06-10T09:14:59;9.75;;;4.35;;
53533;SDS011;39421;53.204;6.568;2023-06-10T09:17:26;10.20;;;4.40;;
53533;SDS011;39421;53.204;6.568;2023-06-10T09:19:52;9.95;;;4.50;;
53533;SDS011;39421;53.204;6.568;2023-06-10T09:22:22;10.25;;;4.25;;
53533;SDS011;39421;53.204;6.568;2023-06-10T09:24:49;9.05;;;4.25;;
53533;SDS011;39421;53.204;6.568;2023-06-10T09:27:15;9.85;;;4.70;;
53533;SDS011;39421;53.204;6.568;2023-06-10T09:29:51;10.13;;;4.38;;
53533;SDS011;39421;53.204;6.568;2023-06-10T09:32:18;10.80;;;4.30;;
53533;SDS011;39421;53.204;6.568;2023-06-10T09:34:44;9.68;;;4.00;;
53533;SDS011;39421;53.204;6.568;2023-06-10T09:37:11;16.92;;;4.85;;
53533;SDS011;39421;53.204;6.568;2023-06-10T09:39:37;9.27;;;4.38;;
53533;SDS011;39421;53.204;6.568;2023-06-10T09:42:15;9.93;;;4.63;;
53533;SDS011;39421;53.204;6.568;2023-06-10T09:44:41;9.20;;;4.35;;
53533;SDS011;39421;53.204;6.568;2023-06-10T09:47:08;10.70;;;4.80;;
53533;SDS011;39421;53.204;6.568;2023-06-10T09:49:34;12.80;;;4.70;;
53533;SDS011;39421;53.204;6.568;2023-06-10T09:52:04;11.30;;;4.63;;
53533;SDS011;39421;53.204;6.568;2023-06-10T09:54:32;10.55;;;4.60;;
53533;SDS011;39421;53.204;6.568;2023-06-10T09:56:58;10.65;;;4.72;;
53533;SDS011;39421;53.204;6.568;2023-06-10T09:59:28;9.90;;;4.35;;
53533;SDS011;39421;53.204;6.568;2023-06-10T10:01:56;9.95;;;4.45;;
53533;SDS011;39421;53.204;6.568;2023-06-10T10:04:24;10.02;;;4.65;;
53533;SDS011;39421;53.204;6.568;2023-06-10T10:06:50;12.80;;;4.40;;
53533;SDS011;39421;53.204;6.568;2023-06-10T10:09:17;10.27;;;4.50;;
53533;SDS011;39421;53.204;6.568;2023-06-10T10:11:43;10.27;;;4.90;;
53533;SDS011;39421;53.204;6.568;2023-06-10T10:14:10;10.23;;;4.75;;
53533;SDS011;39421;53.204;6.568;2023-06-10T10:16:37;10.00;;;4.72;;
53533;SDS011;39421;53.204;6.568;2023-06-10T10:19:07;9.82;;;4.40;;
53533;SDS011;39421;53.204;6.568;2023-06-10T10:21:35;9.80;;;4.57;;
53533;SDS011;39421;53.204;6.568;2023-06-10T10:24:12;10.13;;;4.60;;
53533;SDS011;39421;53.204;6.568;2023-06-10T10:26:41;10.43;;;4.90;;
53533;SDS011;39421;53.204;6.568;2023-06-10T10:29:16;9.80;;;4.90;;
53533;SDS011;39421;53.204;6.568;2023-06-10T10:31:42;10.27;;;4.55;;
53533;SDS011;39421;53.204;6.568;2023-06-10T10:34:12;10.83;;;4.97;;
53533;SDS011;39421;53.204;6.568;2023-06-10T10:36:39;10.73;;;4.80;;
53533;SDS011;39421;53.204;6.568;2023-06-10T10:39:05;12.65;;;5.20;;
53533;SDS011;39421;53.204;6.568;2023-06-10T10:41:32;9.73;;;4.72;;
53533;SDS011;39421;53.204;6.568;2023-06-10T10:44:00;10.95;;;4.80;;
53533;SDS011;39421;53.204;6.568;2023-06-10T10:46:26;10.50;;;5.55;;
53533;SDS011;39421;53.204;6.568;2023-06-10T10:48:53;11.10;;;5.05;;
53533;SDS011;39421;53.204;6.568;2023-06-10T10:51:19;9.70;;;4.60;;
53533;SDS011;39421;53.204;6.568;2023-06-10T10:54:09;10.30;;;4.85;;
53533;SDS011;39421;53.204;6.568;2023-06-10T10:56:31;12.13;;;4.70;;
53533;SDS011;39421;53.204;6.568;2023-06-10T10:59:02;9.80;;;4.85;;
53533;SDS011;39421;53.204;6.568;2023-06-10T11:01:39;10.52;;;4.70;;
53533;SDS011;39421;53.204;6.568;2023-06-10T11:04:06;9.57;;;4.70;;
53533;SDS011;39421;53.204;6.568;2023-06-10T11:06:34;10.05;;;4.72;;
53533;SDS011;39421;53.204;6.568;2023-06-10T11:09:00;11.63;;;5.30;;
53533;SDS011;39421;53.204;6.568;2023-06-10T11:11:27;9.77;;;5.00;;
53533;SDS011;39421;53.204;6.568;2023-06-10T11:14:11;10.60;;;4.50;;
53533;SDS011;39421;53.204;6.568;2023-06-10T11:16:42;17.10;;;5.53;;
53533;SDS011;39421;53.204;6.568;2023-06-10T11:19:09;11.00;;;5.70;;
53533;SDS011;39421;53.204;6.568;2023-06-10T11:24:20;11.25;;;5.60;;
53533;SDS011;39421;53.204;6.568;2023-06-10T11:26:46;9.73;;;4.90;;
53533;SDS011;39421;53.204;6.568;2023-06-10T11:29:12;9.52;;;5.00;;
53533;SDS011;39421;53.204;6.568;2023-06-10T11:31:44;9.30;;;5.10;;
53533;SDS011;39421;53.204;6.568;2023-06-10T11:34:12;11.60;;;4.97;;
53533;SDS011;39421;53.204;6.568;2023-06-10T11:36:39;11.07;;;5.07;;
53533;SDS011;39421;53.204;6.568;2023-06-10T11:39:06;14.73;;;5.28;;
53533;SDS011;39421;53.204;6.568;2023-06-10T11:41:33;11.10;;;5.13;;
53533;SDS011;39421;53.204;6.568;2023-06-10T11:44:10;9.73;;;5.00;;
53533;SDS011;39421;53.204;6.568;2023-06-10T11:46:36;10.25;;;4.72;;
53533;SDS011;39421;53.204;6.568;2023-06-10T11:49:03;10.02;;;4.78;;
53533;SDS011;39421;53.204;6.568;2023-06-10T11:51:32;8.77;;;4.07;;
53533;SDS011;39421;53.204;6.568;2023-06-10T11:53:58;9.48;;;4.40;;
53533;SDS011;39421;53.204;6.568;2023-06-10T11:56:26;17.38;;;4.68;;
53533;SDS011;39421;53.204;6.568;2023-06-10T11:58:53;8.45;;;4.00;;
53533;SDS011;39421;53.204;6.568;2023-06-10T12:01:20;8.80;;;4.22;;
53533;SDS011;39421;53.204;6.568;2023-06-10T12:03:47;9.15;;;4.22;;
53533;SDS011;39421;53.204;6.568;2023-06-10T12:06:13;10.95;;;4.50;;
53533;SDS011;39421;53.204;6.568;2023-06-10T12:08:42;7.50;;;4.10;;
53533;SDS011;39421;53.204;6.568;2023-06-10T12:11:09;9.40;;;4.53;;
53533;SDS011;39421;53.204;6.568;2023-06-10T12:13:47;9.85;;;4.55;;
53533;SDS011;39421;53.204;6.568;2023-06-10T12:16:15;10.27;;;4.15;;
53533;SDS011;39421;53.204;6.568;2023-06-10T12:18:43;11.02;;;4.90;;
53533;SDS011;39421;53.204;6.568;2023-06-10T12:21:20;9.98;;;4.95;;
53533;SDS011;39421;53.204;6.568;2023-06-10T12:24:10;10.10;;;4.82;;
53533;SDS011;39421;53.204;6.568;2023-06-10T12:26:37;11.85;;;5.13;;
53533;SDS011;39421;53.204;6.568;2023-06-10T12:29:23;9.07;;;4.50;;
53533;SDS011;39421;53.204;6.568;2023-06-10T12:36:56;10.18;;;4.88;;
53533;SDS011;39421;53.204;6.568;2023-06-10T12:39:22;9.97;;;4.80;;
53533;SDS011;39421;53.204;6.568;2023-06-10T12:41:49;9.95;;;4.63;;
53533;SDS011;39421;53.204;6.568;2023-06-10T12:44:15;12.73;;;5.18;;
53533;SDS011;39421;53.204;6.568;2023-06-10T12:46:41;9.07;;;5.07;;
53533;SDS011;39421;53.204;6.568;2023-06-10T12:49:07;9.77;;;4.82;;
53533;SDS011;39421;53.204;6.568;2023-06-10T12:51:34;11.57;;;5.28;;
53533;SDS011;39421;53.204;6.568;2023-06-10T12:54:02;16.67;;;5.35;;
53533;SDS011;39421;53.204;6.568;2023-06-10T12:56:28;10.67;;;5.50;;
53533;SDS011;39421;53.204;6.568;2023-06-10T12:58:54;8.80;;;4.90;;
53533;SDS011;39421;53.204;6.568;2023-06-10T13:01:20;10.50;;;5.33;;
53533;SDS011;39421;53.204;6.568;2023-06-10T13:03:47;12.73;;;5.32;;
53533;SDS011;39421;53.204;6.568;2023-06-10T13:06:14;9.32;;;4.80;;
53533;SDS011;39421;53.204;6.568;2023-06-10T13:08:41;14.68;;;5.47;;
53533;SDS011;39421;53.204;6.568;2023-06-10T13:11:13;10.82;;;5.07;;
53533;SDS011;39421;53.204;6.568;2023-06-10T13:13:39;10.98;;;5.40;;
53533;SDS011;39421;53.204;6.568;2023-06-10T13:16:05;10.10;;;5.30;;
53533;SDS011;39421;53.204;6.568;2023-06-10T13:18:32;12.13;;;5.22;;
53533;SDS011;39421;53.204;6.568;2023-06-10T13:21:05;10.70;;;4.78;;
53533;SDS011;39421;53.204;6.568;2023-06-10T13:23:37;11.00;;;5.30;;
53533;SDS011;39421;53.204;6.568;2023-06-10T13:26:03;9.50;;;5.15;;
53533;SDS011;39421;53.204;6.568;2023-06-10T13:28:29;10.20;;;5.30;;
53533;SDS011;39421;53.204;6.568;2023-06-10T13:31:02;9.30;;;5.03;;
53533;SDS011;39421;53.204;6.568;2023-06-10T13:33:28;10.25;;;4.82;;
53533;SDS011;39421;53.204;6.568;2023-06-10T13:36:00;10.02;;;4.90;;
53533;SDS011;39421;53.204;6.568;2023-06-10T13:38:26;10.32;;;5.20;;
53533;SDS011;39421;53.204;6.568;2023-06-10T13:40:53;10.98;;;5.10;;
53533;SDS011;39421;53.204;6.568;2023-06-10T13:43:22;11.18;;;5.00;;
53533;SDS011;39421;53.204;6.568;2023-06-10T13:45:48;10.50;;;4.75;;
53533;SDS011;39421;53.204;6.568;2023-06-10T13:48:15;9.85;;;4.72;;
53533;SDS011;39421;53.204;6.568;2023-06-10T13:50:41;10.10;;;4.68;;
53533;SDS011;39421;53.204;6.568;2023-06-10T13:53:12;9.93;;;4.68;;
53533;SDS011;39421;53.204;6.568;2023-06-10T13:55:38;8.03;;;3.80;;
53533;SDS011;39421;53.204;6.568;2023-06-10T13:58:04;9.25;;;4.70;;
53533;SDS011;39421;53.204;6.568;2023-06-10T14:00:31;9.68;;;4.43;;
53533;SDS011;39421;53.204;6.568;2023-06-10T14:02:59;9.93;;;4.63;;
53533;SDS011;39421;53.204;6.568;2023-06-10T14:05:25;9.57;;;4.65;;
53533;SDS011;39421;53.204;6.568;2023-06-10T14:07:51;10.60;;;4.85;;
53533;SDS011;39421;53.204;6.568;2023-06-10T14:10:17;10.55;;;4.90;;
53533;SDS011;39421;53.204;6.568;2023-06-10T14:12:48;10.75;;;4.70;;
53533;SDS011;39421;53.204;6.568;2023-06-10T14:15:14;9.93;;;4.38;;
53533;SDS011;39421;53.204;6.568;2023-06-10T14:17:46;8.95;;;4.05;;
53533;SDS011;39421;53.204;6.568;2023-06-10T14:20:12;9.88;;;4.53;;
53533;SDS011;39421;53.204;6.568;2023-06-10T14:22:39;11.48;;;4.57;;
53533;SDS011;39421;53.204;6.568;2023-06-10T14:25:06;9.23;;;4.30;;
53533;SDS011;39421;53.204;6.568;2023-06-10T14:27:32;10.23;;;4.20;;
53533;SDS011;39421;53.204;6.568;2023-06-10T14:29:59;8.45;;;4.00;;
53533;SDS011;39421;53.204;6.568;2023-06-10T14:32:36;9.88;;;4.00;;
53533;SDS011;39421;53.204;6.568;2023-06-10T14:35:02;11.32;;;3.97;;
53533;SDS011;39421;53.204;6.568;2023-06-10T14:37:29;8.50;;;3.42;;
53533;SDS011;39421;53.204;6.568;2023-06-10T14:39:55;10.68;;;3.83;;
53533;SDS011;39421;53.204;6.568;2023-06-10T14:42:27;8.87;;;3.70;;
53533;SDS011;39421;53.204;6.568;2023-06-10T14:44:53;8.77;;;3.88;;
53533;SDS011;39421;53.204;6.568;2023-06-10T14:47:19;9.38;;;4.18;;
53533;SDS011;39421;53.204;6.568;2023-06-10T14:49:48;8.43;;;3.85;;
53533;SDS011;39421;53.204;6.568;2023-06-10T14:52:15;9.45;;;4.75;;